»·PEaware :: N8091E KSNA-KAVX

N8091E :: KSNA-KAVX

FLIGHT INFORMATION

Flight Status: Arrived
Operator: Privately registered:
United States
More flights under this callsign
Pilot: Sander O. (16958)
Aircraft: CESSNA 172 SKYHAWK
(C172)
More flights by this aircraft type
Origin: KSNA John Wayne-Orange Co
United States
Destination: KAVX Catalina
United States
More flights between these airports :: More routes between these airports
Route: SLI V21 SXC
File this flight plan on PilotEdge
Remarks: I-07
Altitude:
(Current/Filed)
4,000ft
Speed:
(Current/Filed)
0kts
Departed: 03-Dec-17 12:13 PM
Arrived: 03-Dec-17 12:45 PM
Distance/Time
Traveled:
32nm/0:31
Distance/Time
To Go:
Arrived

Flight Plot

Page will automatically refresh every two minutes.


Map Options




Map Legend


Flown Route
Filed Route
Departure Airport
Arrival Airport
Navaid (VOR, NDB)
Fix

Horizontal Profiles

Position Reports

Time Latitude Longitude Heading Altitude Ground
Speed
03-Dec-17 11:45 33.674545 -117.872112 118 60ft 0kts
03-Dec-17 11:46 33.674545 -117.872112 118 60ft 0kts
03-Dec-17 11:47 33.674545 -117.872112 118 60ft 0kts
03-Dec-17 11:48 33.674545 -117.872112 118 60ft 0kts
03-Dec-17 11:49 33.674545 -117.872112 118 60ft 0kts
03-Dec-17 11:50 33.674545 -117.872112 118 60ft 0kts
03-Dec-17 11:51 33.674545 -117.872112 118 60ft 0kts
03-Dec-17 11:52 33.674545 -117.872112 118 60ft 0kts
03-Dec-17 11:53 33.674545 -117.872112 118 60ft 0kts
03-Dec-17 11:54 33.674545 -117.872112 118 60ft 0kts
03-Dec-17 11:55 33.674545 -117.872112 118 60ft 0kts
03-Dec-17 11:56 33.674545 -117.872112 118 60ft 0kts
03-Dec-17 11:57 33.674545 -117.872112 118 60ft 0kts
03-Dec-17 11:58 33.674545 -117.872112 118 60ft 0kts
03-Dec-17 11:59 33.674545 -117.872112 118 60ft 0kts
03-Dec-17 12:00 33.674545 -117.872112 118 60ft 0kts
03-Dec-17 12:01 33.674545 -117.872112 118 60ft 0kts
03-Dec-17 12:02 33.674545 -117.872112 118 60ft 0kts
03-Dec-17 12:03 33.674545 -117.872112 118 60ft 0kts
03-Dec-17 12:04 33.674545 -117.872112 118 60ft 0kts
03-Dec-17 12:05 33.674545 -117.872112 118 60ft 0kts
03-Dec-17 12:06 33.674545 -117.872112 118 60ft 0kts
03-Dec-17 12:07 33.674545 -117.872112 118 60ft 0kts
03-Dec-17 12:08 33.674545 -117.872112 118 60ft 0kts
03-Dec-17 12:09 33.674545 -117.872112 118 60ft 0kts
03-Dec-17 12:10 33.674545 -117.872112 118 60ft 0kts
03-Dec-17 12:11 33.674545 -117.872112 118 60ft 0kts
03-Dec-17 12:12 33.674545 -117.872112 118 60ft 0kts
03-Dec-17 12:13 33.675273 -117.870596 30 60ft 14kts
03-Dec-17 12:14 33.679872 -117.867854 26 60ft 21kts
03-Dec-17 12:15 33.681224 -117.866367 123 60ft 0kts
03-Dec-17 12:16 33.681224 -117.866367 123 60ft 0kts
03-Dec-17 12:17 33.681206 -117.866329 116 60ft 3kts
03-Dec-17 12:18 33.672148 -117.871732 217 332ft 82kts
03-Dec-17 12:19 33.661269 -117.888708 231 1090ft 89kts
03-Dec-17 12:20 33.645567 -117.914109 231 2099ft 93kts
03-Dec-17 12:21 33.631826 -117.935842 231 2875ft 98kts
03-Dec-17 12:22 33.618932 -117.955529 231 3481ft 101kts
03-Dec-17 12:23 33.598657 -117.987049 239 4011ft 114kts
03-Dec-17 12:24 33.581758 -118.020222 240 4026ft 120kts
03-Dec-17 12:25 33.567306 -118.048547 240 3985ft 123kts
03-Dec-17 12:26 33.546916 -118.088183 240 3980ft 120kts
03-Dec-17 12:27 33.532508 -118.116150 240 3979ft 120kts
03-Dec-17 12:28 33.515814 -118.148523 239 3980ft 121kts
03-Dec-17 12:29 33.500560 -118.178076 239 3981ft 121kts
03-Dec-17 12:30 33.484532 -118.210779 235 4019ft 117kts
03-Dec-17 12:31 33.468134 -118.243789 233 4019ft 114kts
03-Dec-17 12:32 33.450810 -118.274536 233 4020ft 112kts
03-Dec-17 12:33 33.434457 -118.305781 233 4020ft 110kts
03-Dec-17 12:34 33.418518 -118.337024 234 4019ft 110kts
03-Dec-17 12:35 33.402683 -118.368267 234 4018ft 109kts
03-Dec-17 12:36 33.387292 -118.398734 234 4007ft 104kts
03-Dec-17 12:37 33.388267 -118.428291 343 3833ft 122kts
03-Dec-17 12:38 33.419199 -118.416335 17 3443ft 116kts
03-Dec-17 12:39 33.449872 -118.410105 7 3434ft 111kts
03-Dec-17 12:40 33.478756 -118.415433 321 3430ft 111kts
03-Dec-17 12:41 33.502218 -118.438601 340 3426ft 110kts
03-Dec-17 12:42 33.509776 -118.418475 138 3423ft 97kts
03-Dec-17 12:43 33.485958 -118.405716 185 3361ft 102kts
03-Dec-17 12:44 33.457010 -118.407924 184 2776ft 94kts
03-Dec-17 12:45 33.431402 -118.408294 197 2694ft 97kts
03-Dec-17 12:46 33.420458 -118.433037 265 2538ft 90kts
03-Dec-17 12:47 33.412295 -118.419952 59 2446ft 107kts
03-Dec-17 12:48 33.428781 -118.393453 85 2609ft 89kts
03-Dec-17 12:49 33.414460 -118.398907 248 2263ft 76kts
03-Dec-17 12:50 33.404704 -118.416280 237 1606ft 35kts
03-Dec-17 12:51 33.403577 -118.415084 64 1606ft 7kts
03-Dec-17 12:52 33.403660 -118.414936 1 1606ft 0kts

Navigation Log

Ident Type
1. KSNA Airport
2. SLI Navaid
3. SXC Navaid
4. KAVX Airport